Time;durP1;ratioP1;P1;durP2;ratioP2;P2;SDS_P1;SDS_P2;PMS_P1;PMS_P2;Temp;Humidity;BMP_temperature;BMP_pressure;BME280_temperature;BME280_humidity;BME280_pressure;Samples;Min_cycle;Max_cycle;Signal;HPM_P1;HPM_P2
2022/11/06 00:01:52;;;;;;;9.40;4.78;;;10.50;80.10;;;;;;5094119;28;20159;-74
2022/11/06 00:04:19;;;;;;;10.50;4.78;;;10.50;80.00;;;;;;5075373;28;20048;-74
2022/11/06 00:06:46;;;;;;;9.85;4.90;;;10.50;80.10;;;;;;5066783;28;20041;-74
2022/11/06 00:09:15;;;;;;;9.63;4.77;;;10.40;80.00;;;;;;5061243;28;20040;-74
2022/11/06 00:11:42;;;;;;;10.07;5.40;;;10.50;80.20;;;;;;5058946;28;20055;-74
2022/11/06 00:14:10;;;;;;;12.32;5.72;;;10.50;80.20;;;;;;5075413;28;20048;-74
2022/11/06 00:16:38;;;;;;;10.52;4.70;;;10.40;80.40;;;;;;5094249;28;20063;-74
2022/11/06 00:19:05;;;;;;;11.38;5.50;;;10.40;80.40;;;;;;5093206;28;20048;-74
2022/11/06 00:21:33;;;;;;;10.50;4.93;;;10.40;80.40;;;;;;5058657;28;20049;-74
2022/11/06 00:24:03;;;;;;;11.02;4.50;;;10.40;80.50;;;;;;5069555;28;20045;-74
2022/11/06 00:26:31;;;;;;;10.77;5.10;;;10.40;80.40;;;;;;5055158;28;20126;-75
2022/11/06 00:28:59;;;;;;;10.32;5.32;;;10.40;80.70;;;;;;5073121;28;20045;-75
2022/11/06 00:31:28;;;;;;;11.98;6.32;;;10.30;80.80;;;;;;5055347;28;20160;-74
2022/11/06 00:33:57;;;;;;;12.47;5.27;;;10.30;81.00;;;;;;5066927;28;20052;-74
2022/11/06 00:36:25;;;;;;;8.95;4.65;;;10.40;80.80;;;;;;5075164;28;20059;-74
2022/11/06 00:38:52;;;;;;;12.35;5.60;;;10.30;80.90;;;;;;5074673;28;20719;-74
2022/11/06 00:41:22;;;;;;;10.88;5.30;;;10.30;81.00;;;;;;5067255;28;20053;-74
2022/11/06 00:43:50;;;;;;;10.70;4.13;;;10.30;81.10;;;;;;5055057;28;20053;-75
2022/11/06 00:46:18;;;;;;;11.43;5.40;;;10.30;81.20;;;;;;5055213;28;20128;-74
2022/11/06 00:48:45;;;;;;;12.25;6.25;;;10.30;81.40;;;;;;5073207;28;20128;-75
2022/11/06 00:51:18;;;;;;;10.68;5.22;;;10.30;81.50;;;;;;5087541;28;20052;-74
2022/11/06 00:53:46;;;;;;;11.05;5.60;;;10.30;81.50;;;;;;5073497;28;20135;-74
2022/11/06 00:56:15;;;;;;;10.73;4.82;;;10.30;81.60;;;;;;5054916;28;20860;-74
2022/11/06 00:58:45;;;;;;;11.73;5.10;;;10.30;81.70;;;;;;5080948;28;20048;-74
2022/11/06 01:01:14;;;;;;;12.85;5.22;;;10.20;81.80;;;;;;5074586;28;20100;-74
2022/11/06 01:03:42;;;;;;;10.45;5.30;;;10.20;81.80;;;;;;5076502;28;20053;-74
2022/11/06 01:06:11;;;;;;;11.07;4.97;;;10.20;81.80;;;;;;5075294;28;20234;-74
2022/11/06 01:08:39;;;;;;;11.63;5.15;;;10.30;81.70;;;;;;5054329;28;20074;-74
2022/11/06 01:11:08;;;;;;;10.83;4.77;;;10.20;81.70;;;;;;5054805;28;20112;-75
2022/11/06 01:13:36;;;;;;;11.13;5.75;;;10.20;81.70;;;;;;5080133;28;20049;-74
2022/11/06 01:16:07;;;;;;;11.63;5.25;;;10.20;82.00;;;;;;5065224;28;20045;-74
2022/11/06 01:18:35;;;;;;;12.98;5.50;;;10.20;82.20;;;;;;5044674;28;20128;-75
2022/11/06 01:21:04;;;;;;;10.02;5.00;;;10.20;82.40;;;;;;5057292;28;20135;-74
2022/11/06 01:23:31;;;;;;;11.47;5.90;;;10.20;82.50;;;;;;5057909;28;20852;-74
2022/11/06 01:25:59;;;;;;;10.63;5.13;;;10.20;82.80;;;;;;5092501;28;20048;-75
2022/11/06 01:28:27;;;;;;;13.13;5.93;;;10.20;82.80;;;;;;5073909;28;20911;-75
2022/11/06 01:30:55;;;;;;;13.10;6.22;;;10.20;83.00;;;;;;5057367;28;20158;-75
2022/11/06 01:33:23;;;;;;;10.88;5.05;;;10.10;83.20;;;;;;5063282;28;20060;-75
2022/11/06 01:35:51;;;;;;;10.50;5.83;;;10.10;83.20;;;;;;5068567;28;20055;-75
2022/11/06 01:38:18;;;;;;;11.68;5.60;;;10.10;83.40;;;;;;5082782;28;20512;-75
2022/11/06 01:40:47;;;;;;;11.65;6.00;;;10.10;83.40;;;;;;5071233;28;20608;-75
2022/11/06 01:43:17;;;;;;;12.18;6.43;;;10.10;83.60;;;;;;5072505;28;20074;-75
2022/11/06 01:45:46;;;;;;;12.75;6.05;;;10.10;83.70;;;;;;5090651;28;20124;-75
2022/11/06 01:48:14;;;;;;;11.97;6.40;;;10.00;83.70;;;;;;5073315;28;20125;-75
2022/11/06 01:50:44;;;;;;;10.05;4.28;;;10.00;84.10;;;;;;5062300;28;20048;-75
2022/11/06 01:53:12;;;;;;;11.98;6.20;;;10.00;83.90;;;;;;5060008;28;20055;-75
2022/11/06 01:55:43;;;;;;;10.60;5.30;;;10.00;83.90;;;;;;5092427;28;20122;-74
2022/11/06 01:58:14;;;;;;;9.77;5.35;;;10.00;84.00;;;;;;5091818;28;20041;-75
2022/11/06 02:00:42;;;;;;;14.57;5.20;;;10.00;84.00;;;;;;5073844;28;20052;-75
2022/11/06 02:03:11;;;;;;;11.18;5.68;;;10.00;84.20;;;;;;5074129;28;20053;-74
2022/11/06 02:05:39;;;;;;;10.68;5.68;;;10.00;84.10;;;;;;5073976;28;20826;-74
2022/11/06 02:08:11;;;;;;;12.18;6.07;;;10.00;84.30;;;;;;5060961;28;20053;-74
2022/11/06 02:10:39;;;;;;;11.73;5.93;;;10.00;84.40;;;;;;5053262;28;20048;-74
2022/11/06 02:13:21;;;;;;;12.73;5.33;;;10.00;84.50;;;;;;5072268;28;20059;-74
2022/11/06 02:16:01;;;;;;;13.93;6.30;;;9.90;84.60;;;;;;5053017;28;20045;-75
2022/11/06 02:18:50;;;;;;;11.80;6.38;;;9.90;84.60;;;;;;5092094;28;20053;-75
2022/11/06 02:21:49;;;;;;;12.90;5.72;;;9.80;84.80;;;;;;5073777;28;20061;-75
2022/11/06 02:24:35;;;;;;;10.90;5.18;;;9.80;84.90;;;;;;5087922;28;20241;-75
2022/11/06 02:27:10;;;;;;;13.47;6.23;;;9.80;85.00;;;;;;5053388;28;20045;-75
2022/11/06 02:29:47;;;;;;;12.48;6.30;;;9.80;85.00;;;;;;5052878;28;20500;-75
2022/11/06 02:32:20;;;;;;;12.27;6.38;;;9.80;85.10;;;;;;5073261;28;20069;-75
2022/11/06 02:34:49;;;;;;;12.65;6.15;;;9.80;85.20;;;;;;5073359;28;20494;-75
2022/11/06 02:37:21;;;;;;;11.70;5.05;;;9.80;85.20;;;;;;5069752;28;20052;-75
2022/11/06 02:39:51;;;;;;;8.90;4.03;;;9.80;85.20;;;;;;5069831;28;20403;-75
2022/11/06 02:42:21;;;;;;;12.85;5.80;;;9.80;85.40;;;;;;5061892;28;20442;-75
2022/11/06 02:44:52;;;;;;;11.57;6.30;;;9.80;85.30;;;;;;5071392;28;20060;-74
2022/11/06 02:47:21;;;;;;;11.80;5.53;;;9.70;85.30;;;;;;5071532;28;20051;-75
2022/11/06 02:49:52;;;;;;;13.77;5.70;;;9.70;85.40;;;;;;5052514;28;20048;-75
2022/11/06 02:52:23;;;;;;;14.07;6.13;;;9.70;85.50;;;;;;5080187;28;20064;-75
2022/11/06 02:54:56;;;;;;;12.20;5.10;;;9.70;85.60;;;;;;5071055;28;20159;-75
2022/11/06 02:57:27;;;;;;;12.02;5.22;;;9.70;85.60;;;;;;5062874;28;20041;-75
2022/11/06 03:00:01;;;;;;;9.55;4.82;;;9.70;85.70;;;;;;5058132;28;20041;-75
2022/11/06 03:02:33;;;;;;;10.43;5.00;;;9.70;85.60;;;;;;5063006;28;20053;-75
2022/11/06 03:05:05;;;;;;;10.13;4.97;;;9.70;85.60;;;;;;5073082;28;20053;-75
2022/11/06 03:07:37;;;;;;;8.77;4.55;;;9.70;85.60;;;;;;5073042;28;20055;-75
2022/11/06 03:10:06;;;;;;;11.13;5.55;;;9.70;85.70;;;;;;5072496;28;20124;-75
2022/11/06 03:12:40;;;;;;;11.13;4.80;;;9.70;85.70;;;;;;5080372;28;20049;-74
2022/11/06 03:15:26;;;;;;;10.50;5.88;;;9.70;85.70;;;;;;5052743;28;20049;-75
2022/11/06 03:18:01;;;;;;;10.10;4.30;;;9.70;85.90;;;;;;5066709;28;20047;-75
2022/11/06 03:20:34;;;;;;;11.85;5.63;;;9.70;85.90;;;;;;5068759;28;20051;-75
2022/11/06 03:23:10;;;;;;;10.05;5.80;;;9.70;85.90;;;;;;5090581;28;20431;-75
2022/11/06 03:25:44;;;;;;;10.65;4.45;;;9.70;86.00;;;;;;5072424;28;20053;-75
2022/11/06 03:28:22;;;;;;;10.40;4.55;;;9.70;85.80;;;;;;5072700;28;20150;-75
2022/11/06 03:30:54;;;;;;;9.27;4.97;;;9.70;86.00;;;;;;5071011;28;20068;-74
2022/11/06 03:33:29;;;;;;;9.65;4.53;;;9.70;86.00;;;;;;5070225;28;20059;-75
2022/11/06 03:36:03;;;;;;;8.93;4.55;;;9.70;85.90;;;;;;5069226;28;20119;-74
2022/11/06 03:38:33;;;;;;;11.65;5.43;;;9.60;86.00;;;;;;5072511;28;20048;-75
2022/11/06 03:41:06;;;;;;;8.85;3.53;;;9.60;86.20;;;;;;5090213;28;20059;-75
2022/11/06 03:43:36;;;;;;;11.23;4.97;;;9.70;86.30;;;;;;5090876;28;20052;-75
2022/11/06 03:46:07;;;;;;;12.25;4.70;;;9.70;86.20;;;;;;5069991;28;20568;-75
2022/11/06 03:48:39;;;;;;;10.60;5.35;;;9.60;86.30;;;;;;5052228;28;20060;-75
2022/11/06 03:51:11;;;;;;;11.68;5.18;;;9.60;86.50;;;;;;5069319;28;20529;-75
2022/11/06 03:53:45;;;;;;;13.23;4.90;;;9.60;86.40;;;;;;5052119;28;20056;-75
2022/11/06 03:56:17;;;;;;;9.00;3.70;;;9.60;86.40;;;;;;5061189;28;20118;-75
2022/11/06 03:58:49;;;;;;;9.98;5.03;;;9.60;86.50;;;;;;5072350;28;20508;-75
2022/11/06 04:01:21;;;;;;;11.85;4.75;;;9.60;86.40;;;;;;5071980;28;20077;-75
2022/11/06 04:03:55;;;;;;;9.60;4.35;;;9.60;86.50;;;;;;5071969;28;20044;-75
2022/11/06 04:06:27;;;;;;;8.57;4.57;;;9.60;86.60;;;;;;5080512;28;20122;-75
2022/11/06 04:14:38;;;;;;;10.63;4.18;;;9.60;86.90;;;;;;5053791;28;20525;-75
2022/11/06 04:17:08;;;;;;;10.75;5.25;;;9.60;87.00;;;;;;5071768;28;20853;-75
2022/11/06 04:19:35;;;;;;;11.63;5.57;;;9.60;87.20;;;;;;5071815;28;20056;-75
2022/11/06 04:22:21;;;;;;;12.80;5.60;;;9.60;87.20;;;;;;5075522;28;20068;-75
2022/11/06 04:27:58;;;;;;;11.63;4.85;;;9.60;87.20;;;;;;5070097;28;20053;-75
2022/11/06 04:30:30;;;;;;;13.70;4.97;;;9.60;87.10;;;;;;5076409;28;20092;-75
2022/11/06 04:33:05;;;;;;;10.38;4.55;;;9.60;87.30;;;;;;5072195;28;20241;-75
2022/11/06 04:35:47;;;;;;;13.27;4.53;;;9.50;87.30;;;;;;5082227;28;20132;-75
2022/11/06 04:38:25;;;;;;;10.68;5.00;;;9.50;87.30;;;;;;5052968;28;20045;-74
2022/11/06 04:40:58;;;;;;;8.10;4.43;;;9.50;87.50;;;;;;5083476;28;20139;-75
2022/11/06 04:43:31;;;;;;;8.20;3.80;;;9.60;87.50;;;;;;5060047;28;20045;-75
2022/11/06 04:46:03;;;;;;;9.10;3.58;;;9.50;87.30;;;;;;5083954;28;20143;-75
2022/11/06 04:48:30;;;;;;;12.50;4.33;;;9.50;87.40;;;;;;5093400;28;20059;-75
2022/11/06 04:51:01;;;;;;;9.55;4.05;;;9.50;87.40;;;;;;5093057;28;20486;-74
2022/11/06 04:53:30;;;;;;;11.43;4.20;;;9.50;87.40;;;;;;5074921;28;20074;-75
2022/11/06 04:56:01;;;;;;;9.05;3.80;;;9.50;87.40;;;;;;5083259;28;20099;-75
2022/11/06 04:58:28;;;;;;;11.50;4.90;;;9.50;87.50;;;;;;5073060;28;20072;-75
2022/11/06 05:00:55;;;;;;;7.07;3.43;;;9.50;87.40;;;;;;5080900;28;20130;-75
2022/11/06 05:03:24;;;;;;;9.35;3.42;;;9.50;87.50;;;;;;5074741;28;20050;-75
2022/11/06 05:05:51;;;;;;;10.25;3.63;;;9.50;87.60;;;;;;5074502;28;20048;-75
2022/11/06 05:08:21;;;;;;;8.77;3.90;;;9.50;87.60;;;;;;5074297;28;20525;-75
2022/11/06 05:10:48;;;;;;;12.65;3.97;;;9.50;87.70;;;;;;5074377;28;20548;-75
2022/11/06 05:13:16;;;;;;;9.30;3.63;;;9.50;87.80;;;;;;5087839;28;20045;-75
2022/11/06 05:15:43;;;;;;;9.48;3.47;;;9.50;87.70;;;;;;5071475;28;20585;-75
2022/11/06 05:18:10;;;;;;;10.82;3.75;;;9.50;87.90;;;;;;5069570;28;20048;-75
2022/11/06 05:20:38;;;;;;;11.82;3.60;;;9.50;87.80;;;;;;5071086;28;20049;-75
2022/11/06 05:23:04;;;;;;;7.43;2.95;;;9.50;87.80;;;;;;5088433;28;20041;-74
2022/11/06 05:25:33;;;;;;;10.93;3.20;;;9.50;87.80;;;;;;5092746;28;20049;-75
2022/11/06 05:28:01;;;;;;;11.23;3.72;;;9.50;87.80;;;;;;5074331;28;20049;-75
2022/11/06 05:30:28;;;;;;;8.35;3.45;;;9.50;87.90;;;;;;5074451;28;20506;-74
2022/11/06 05:32:55;;;;;;;8.43;2.80;;;9.50;87.80;;;;;;5092811;28;20080;-74
2022/11/06 05:35:23;;;;;;;9.10;3.72;;;9.50;87.70;;;;;;5069260;28;20557;-74
2022/11/06 05:37:51;;;;;;;12.53;3.57;;;9.50;87.80;;;;;;5078521;28;20473;-74
2022/11/06 05:40:18;;;;;;;9.48;3.38;;;9.50;87.70;;;;;;5037061;28;20569;-75
2022/11/06 05:42:45;;;;;;;8.43;3.10;;;9.50;87.70;;;;;;5078019;28;20060;-75
2022/11/06 05:45:12;;;;;;;8.45;3.25;;;9.50;87.50;;;;;;5074402;28;20041;-74
2022/11/06 05:47:41;;;;;;;6.50;2.40;;;9.50;87.60;;;;;;5073972;28;20052;-74
2022/11/06 05:50:10;;;;;;;10.07;4.00;;;9.50;87.50;;;;;;5072526;28;20072;-75
2022/11/06 05:52:37;;;;;;;7.93;3.10;;;9.50;87.40;;;;;;5090158;28;20528;-75
2022/11/06 05:55:07;;;;;;;5.65;2.90;;;9.50;87.40;;;;;;5074313;28;20045;-75
2022/11/06 05:57:34;;;;;;;8.45;2.70;;;9.60;87.20;;;;;;5074156;28;20976;-74
2022/11/06 06:00:01;;;;;;;9.00;3.22;;;9.60;87.20;;;;;;5091875;28;20048;-74
2022/11/06 06:02:28;;;;;;;9.23;3.17;;;9.60;87.10;;;;;;5112621;22;20066;-74
2022/11/06 06:04:55;;;;;;;10.68;3.25;;;9.60;86.90;;;;;;5114498;27;20057;-74
2022/11/06 06:07:23;;;;;;;8.65;2.95;;;9.60;86.70;;;;;;5100539;28;20066;-75
2022/11/06 06:09:50;;;;;;;8.40;3.13;;;9.70;86.40;;;;;;5093257;28;20135;-75
2022/11/06 06:12:18;;;;;;;8.60;3.03;;;9.70;86.30;;;;;;5094046;28;20737;-74
2022/11/06 06:14:45;;;;;;;8.53;2.83;;;9.70;86.20;;;;;;5112708;28;20135;-75
2022/11/06 06:17:12;;;;;;;6.75;2.60;;;9.70;86.20;;;;;;5104727;27;20039;-74
2022/11/06 06:19:39;;;;;;;7.05;2.60;;;9.70;86.20;;;;;;5113857;27;20051;-74
2022/11/06 06:22:07;;;;;;;6.72;2.50;;;9.70;86.20;;;;;;5113838;27;20138;-75
2022/11/06 06:24:34;;;;;;;8.40;3.05;;;9.70;86.30;;;;;;5096915;27;20054;-74
2022/11/06 06:27:01;;;;;;;6.20;2.50;;;9.70;86.30;;;;;;5099663;28;20051;-75
2022/11/06 06:29:29;;;;;;;11.48;2.58;;;9.80;86.20;;;;;;5093260;28;20509;-75
2022/11/06 06:31:56;;;;;;;7.60;2.38;;;9.80;86.10;;;;;;5101553;28;20058;-75
2022/11/06 06:34:23;;;;;;;9.52;2.60;;;9.80;86.00;;;;;;5098716;27;20128;-75
2022/11/06 06:36:51;;;;;;;10.43;2.15;;;9.80;85.90;;;;;;5121936;27;20044;-75
2022/11/06 06:39:19;;;;;;;7.50;2.30;;;9.80;85.90;;;;;;5104322;27;20111;-74
2022/11/06 06:41:47;;;;;;;7.07;2.28;;;9.80;85.80;;;;;;5125690;27;20048;-76
2022/11/06 06:44:14;;;;;;;7.60;2.60;;;9.90;85.80;;;;;;5106593;27;20451;-74
2022/11/06 06:46:42;;;;;;;8.57;2.40;;;9.90;85.80;;;;;;5119440;27;20052;-73
2022/11/06 06:49:10;;;;;;;10.63;3.00;;;9.90;85.80;;;;;;5104080;27;20047;-72
2022/11/06 06:51:37;;;;;;;7.13;2.33;;;10.00;85.70;;;;;;5100798;27;20127;-73
2022/11/06 06:54:04;;;;;;;8.77;2.50;;;10.00;85.30;;;;;;5105508;27;20120;-74
2022/11/06 06:56:31;;;;;;;10.27;2.60;;;10.00;85.30;;;;;;5101880;27;20076;-75
2022/11/06 06:59:23;;;;;;;9.65;2.88;;;10.00;85.40;;;;;;5119567;27;20186;-74
2022/11/06 07:01:51;;;;;;;9.20;2.53;;;10.00;85.30;;;;;;5121556;27;20048;-75
2022/11/06 07:04:18;;;;;;;10.73;2.40;;;10.00;85.10;;;;;;5129408;27;20146;-74
2022/11/06 07:06:46;;;;;;;6.40;2.53;;;10.00;85.30;;;;;;5104616;27;20105;-75
2022/11/06 07:09:13;;;;;;;7.70;2.25;;;10.00;85.20;;;;;;5123605;27;20067;-75
2022/11/06 07:11:40;;;;;;;7.03;2.13;;;10.00;85.10;;;;;;5129193;27;20135;-77
2022/11/06 07:14:07;;;;;;;6.50;2.10;;;10.10;85.10;;;;;;5124926;27;20052;-74
2022/11/06 07:16:34;;;;;;;7.80;2.17;;;10.10;85.10;;;;;;5111508;27;20044;-74
2022/11/06 07:19:03;;;;;;;9.05;2.10;;;10.10;85.00;;;;;;5111744;27;20048;-75
2022/11/06 07:21:30;;;;;;;10.40;2.45;;;10.10;85.10;;;;;;5112672;27;20072;-75
2022/11/06 07:23:57;;;;;;;6.35;1.90;;;10.10;85.10;;;;;;5120150;27;20058;-75
2022/11/06 07:26:24;;;;;;;6.78;2.15;;;10.10;85.10;;;;;;5083459;27;20127;-74
2022/11/06 07:28:51;;;;;;;8.57;2.10;;;10.10;85.20;;;;;;5126444;27;20052;-76
2022/11/06 07:31:18;;;;;;;8.50;1.90;;;10.10;85.30;;;;;;5104143;27;20041;-75
2022/11/06 07:33:45;;;;;;;9.57;2.45;;;10.20;85.10;;;;;;5114108;27;20465;-74
2022/11/06 07:36:14;;;;;;;7.28;2.10;;;10.20;85.10;;;;;;5092341;28;20060;-75
2022/11/06 07:38:42;;;;;;;7.95;2.33;;;10.20;85.00;;;;;;5105292;27;20047;-78
2022/11/06 07:41:12;;;;;;;6.83;2.00;;;10.20;85.00;;;;;;5111247;27;20052;-75
2022/11/06 07:43:40;;;;;;;6.10;2.20;;;10.20;85.00;;;;;;5120598;27;20052;-76
2022/11/06 07:46:09;;;;;;;5.47;1.92;;;10.20;85.00;;;;;;5104825;27;20097;-73
2022/11/06 07:48:36;;;;;;;7.43;2.20;;;10.20;85.00;;;;;;5108419;27;20106;-74
2022/11/06 07:51:05;;;;;;;8.00;2.80;;;10.20;85.00;;;;;;5110793;27;20052;-73
2022/11/06 07:53:34;;;;;;;6.47;2.10;;;10.20;85.10;;;;;;5110930;27;20050;-74
2022/11/06 07:56:01;;;;;;;7.18;2.78;;;10.30;85.10;;;;;;5118605;27;20078;-75
2022/11/06 07:58:28;;;;;;;8.50;2.60;;;10.30;85.10;;;;;;5091911;28;20536;-74
2022/11/06 08:00:57;;;;;;;7.38;2.20;;;10.30;85.10;;;;;;5101891;27;20051;-75
2022/11/06 08:03:25;;;;;;;8.30;1.73;;;10.30;84.90;;;;;;5112397;27;20055;-76
2022/11/06 08:05:52;;;;;;;6.70;1.63;;;10.30;84.70;;;;;;5109060;27;20060;-78
2022/11/06 08:08:20;;;;;;;5.53;1.60;;;10.30;84.70;;;;;;5107310;27;20040;-74
2022/11/06 08:10:50;;;;;;;7.65;2.10;;;10.30;84.60;;;;;;5103332;28;21028;-74
2022/11/06 08:13:18;;;;;;;8.85;2.20;;;10.30;84.50;;;;;;5097392;28;20052;-76
2022/11/06 08:15:45;;;;;;;5.72;2.03;;;10.30;84.30;;;;;;5122102;27;20062;-73
2022/11/06 08:18:13;;;;;;;8.10;2.00;;;10.30;84.20;;;;;;5116036;27;20055;-73
2022/11/06 08:20:40;;;;;;;7.10;2.40;;;10.30;84.30;;;;;;5109283;27;20051;-71
2022/11/06 08:23:10;;;;;;;7.65;1.90;;;10.30;84.20;;;;;;5115768;27;20065;-74
2022/11/06 08:25:38;;;;;;;5.72;1.60;;;10.30;84.20;;;;;;5097910;27;20043;-74
2022/11/06 08:28:06;;;;;;;8.13;2.10;;;10.30;84.10;;;;;;5114529;27;20043;-76
2022/11/06 08:30:33;;;;;;;6.67;2.20;;;10.30;84.10;;;;;;5106533;28;20064;-74
2022/11/06 08:33:01;;;;;;;6.40;1.80;;;10.40;84.00;;;;;;5093982;28;20525;-77
2022/11/06 08:35:29;;;;;;;8.80;2.30;;;10.40;84.00;;;;;;5107567;27;20064;-75
2022/11/06 08:37:56;;;;;;;7.93;2.13;;;10.40;84.00;;;;;;5114075;27;20970;-76
2022/11/06 08:40:24;;;;;;;6.32;1.80;;;10.40;83.90;;;;;;5114047;27;20050;-74
2022/11/06 08:42:51;;;;;;;7.07;1.90;;;10.40;83.90;;;;;;5116117;27;20065;-75
2022/11/06 08:45:19;;;;;;;5.70;1.85;;;10.40;83.90;;;;;;5120418;27;20056;-73
2022/11/06 08:47:46;;;;;;;5.82;1.92;;;10.40;84.10;;;;;;5112145;27;20048;-74
2022/11/06 08:50:14;;;;;;;9.00;2.00;;;10.40;84.00;;;;;;5094929;28;20054;-74
2022/11/06 08:52:41;;;;;;;8.38;2.25;;;10.40;84.00;;;;;;5096401;27;20054;-73
2022/11/06 08:55:09;;;;;;;8.53;2.10;;;10.40;84.20;;;;;;5114669;27;20126;-74
2022/11/06 08:57:36;;;;;;;7.13;2.00;;;10.40;84.30;;;;;;5133380;27;20056;-75
2022/11/06 09:00:04;;;;;;;9.77;2.42;;;10.40;84.40;;;;;;5113141;27;20469;-74
2022/11/06 09:02:33;;;;;;;7.53;2.20;;;10.40;84.30;;;;;;5120772;27;20147;-74
2022/11/06 09:05:00;;;;;;;6.80;1.88;;;10.40;84.40;;;;;;5104989;27;21032;-72
2022/11/06 09:07:27;;;;;;;5.90;1.80;;;10.40;84.40;;;;;;5102499;27;20040;-75
2022/11/06 09:09:54;;;;;;;8.20;2.10;;;10.50;84.20;;;;;;5122280;27;20063;-74
2022/11/06 09:12:21;;;;;;;7.28;1.95;;;10.50;84.30;;;;;;5102045;27;20056;-73
2022/11/06 09:14:48;;;;;;;8.13;1.98;;;10.50;84.40;;;;;;5102479;27;20509;-75
2022/11/06 09:17:15;;;;;;;8.73;2.22;;;10.50;84.50;;;;;;5086748;27;20494;-77
2022/11/06 09:19:43;;;;;;;5.30;1.70;;;10.50;84.70;;;;;;5119980;27;20057;-73
2022/11/06 09:22:11;;;;;;;6.85;2.50;;;10.50;84.80;;;;;;5104708;27;20129;-74
2022/11/06 09:24:38;;;;;;;7.15;2.38;;;10.60;85.00;;;;;;5123024;27;20133;-73
2022/11/06 09:27:05;;;;;;;7.90;2.42;;;10.60;85.00;;;;;;5123552;27;20055;-74
2022/11/06 09:29:32;;;;;;;7.22;1.85;;;10.60;85.00;;;;;;5112938;27;20060;-75
2022/11/06 09:31:59;;;;;;;7.23;1.50;;;10.70;84.70;;;;;;5112909;27;20050;-75
2022/11/06 09:34:26;;;;;;;7.13;2.00;;;10.70;84.60;;;;;;5109814;28;20532;-76
2022/11/06 09:36:54;;;;;;;5.65;1.80;;;10.80;84.30;;;;;;5095109;28;20044;-76
2022/11/06 09:39:21;;;;;;;6.78;1.63;;;10.80;84.20;;;;;;5112733;27;20056;-75
2022/11/06 09:41:54;;;;;;;9.02;2.60;;;10.90;84.00;;;;;;5126274;27;20062;-75
2022/11/06 09:44:37;;;;;;;6.30;1.90;;;11.00;84.00;;;;;;5115177;27;20079;-77
2022/11/06 09:47:09;;;;;;;8.15;1.70;;;11.00;83.40;;;;;;5114699;27;20507;-77
2022/11/06 09:49:41;;;;;;;7.60;2.17;;;11.00;83.40;;;;;;5110679;28;20052;-73
2022/11/06 09:52:17;;;;;;;5.93;1.83;;;11.10;83.10;;;;;;5097484;27;20058;-75
2022/11/06 09:54:48;;;;;;;9.68;2.00;;;11.10;83.00;;;;;;5110997;27;20048;-76
2022/11/06 09:57:19;;;;;;;5.40;1.57;;;11.10;83.00;;;;;;5102585;28;20048;-75
2022/11/06 09:59:47;;;;;;;7.18;2.03;;;11.10;83.00;;;;;;5093025;28;20123;-75
2022/11/06 10:02:36;;;;;;;9.13;2.00;;;11.10;82.90;;;;;;5120849;27;20066;-75
2022/11/06 10:05:08;;;;;;;5.40;1.40;;;11.10;82.60;;;;;;5119041;27;20055;-75
2022/11/06 10:07:40;;;;;;;4.75;1.60;;;11.20;81.80;;;;;;5103423;27;20061;-75
2022/11/06 10:10:14;;;;;;;6.13;1.60;;;11.20;82.10;;;;;;5105191;27;20129;-75
2022/11/06 10:13:04;;;;;;;6.78;1.80;;;11.20;82.10;;;;;;5099738;27;20059;-75
2022/11/06 10:15:36;;;;;;;5.50;1.83;;;11.20;82.10;;;;;;5099296;27;20040;-75
2022/11/06 10:18:12;;;;;;;5.72;1.25;;;11.30;82.00;;;;;;5095782;27;20985;-75
2022/11/06 10:20:46;;;;;;;5.05;1.40;;;11.30;81.90;;;;;;5103567;28;20063;-76
2022/11/06 10:23:20;;;;;;;4.30;1.40;;;11.30;81.70;;;;;;5115125;27;20541;-75
2022/11/06 10:25:59;;;;;;;7.20;1.60;;;11.30;81.80;;;;;;5113346;27;20112;-75
2022/11/06 10:28:56;;;;;;;5.28;1.70;;;11.30;81.60;;;;;;5113481;27;20128;-75
2022/11/06 10:31:31;;;;;;;8.07;1.88;;;11.40;81.50;;;;;;5109528;27;20048;-75
2022/11/06 10:34:03;;;;;;;6.10;1.77;;;11.40;81.80;;;;;;5108062;27;20039;-75
2022/11/06 10:36:37;;;;;;;7.80;2.20;;;11.40;82.10;;;;;;5103549;27;20137;-75
2022/11/06 10:39:13;;;;;;;5.38;1.40;;;11.40;82.30;;;;;;5129865;27;20625;-75
2022/11/06 10:41:42;;;;;;;8.02;1.70;;;11.40;82.60;;;;;;5113720;27;20040;-73
2022/11/06 10:44:17;;;;;;;8.98;2.10;;;11.40;82.60;;;;;;5131491;27;20043;-75
2022/11/06 10:46:49;;;;;;;3.83;1.25;;;11.40;82.40;;;;;;5112012;27;20050;-74
2022/11/06 10:49:25;;;;;;;5.37;1.70;;;11.40;82.50;;;;;;5095221;28;20078;-82
2022/11/06 10:52:07;;;;;;;7.15;2.50;;;11.50;82.60;;;;;;5076332;28;20613;-75
2022/11/06 10:54:46;;;;;;;6.38;1.60;;;11.50;82.80;;;;;;5075309;27;20139;-76
2022/11/06 10:57:28;;;;;;;6.20;2.10;;;11.40;83.10;;;;;;5108612;27;20047;-76
2022/11/06 10:59:55;;;;;;;7.85;1.77;;;11.40;83.30;;;;;;5127549;27;20130;-76
2022/11/06 11:02:27;;;;;;;8.13;2.27;;;11.40;83.60;;;;;;5100293;27;20054;-76
2022/11/06 11:04:54;;;;;;;6.43;2.45;;;11.40;83.70;;;;;;5104424;27;20551;-76
2022/11/06 11:07:22;;;;;;;8.82;2.70;;;11.40;84.00;;;;;;5107528;27;20538;-76
2022/11/06 11:09:51;;;;;;;7.72;1.90;;;11.40;84.10;;;;;;5102795;27;20532;-77
2022/11/06 11:12:23;;;;;;;5.50;1.67;;;11.40;84.10;;;;;;5129086;27;20112;-74
2022/11/06 11:15:11;;;;;;;11.93;3.80;;;11.40;84.20;;;;;;5112963;27;20533;-76
2022/11/06 11:17:41;;;;;;;11.07;3.53;;;11.40;84.20;;;;;;5103058;28;20134;-75
2022/11/06 11:20:30;;;;;;;6.63;2.00;;;11.50;84.00;;;;;;5114684;27;20063;-77
2022/11/06 11:23:13;;;;;;;5.50;1.75;;;11.50;83.80;;;;;;5102022;27;20935;-75
2022/11/06 11:25:43;;;;;;;6.05;1.70;;;11.50;83.60;;;;;;5107142;27;20052;-76
2022/11/06 11:28:22;;;;;;;5.00;1.53;;;11.50;83.60;;;;;;5111824;27;20054;-76
2022/11/06 11:30:54;;;;;;;4.32;0.98;;;11.50;83.70;;;;;;5109459;27;20564;-76
2022/11/06 11:33:25;;;;;;;6.45;1.50;;;11.50;83.50;;;;;;5123820;27;20079;-77
2022/11/06 11:35:54;;;;;;;4.47;1.50;;;11.50;83.30;;;;;;5128391;27;20059;-76
2022/11/06 11:38:21;;;;;;;6.70;3.03;;;11.60;83.20;;;;;;5121310;27;20043;-76
2022/11/06 11:40:50;;;;;;;7.03;2.10;;;11.60;83.00;;;;;;5091340;27;20043;-75
2022/11/06 11:43:23;;;;;;;7.05;2.28;;;11.60;82.90;;;;;;5127527;27;20564;-75
2022/11/06 11:46:12;;;;;;;8.80;2.28;;;11.70;82.90;;;;;;5110429;27;20051;-76
2022/11/06 11:48:44;;;;;;;6.22;1.90;;;11.70;82.80;;;;;;5134030;27;20052;-76
2022/11/06 11:51:29;;;;;;;6.47;1.70;;;11.70;82.70;;;;;;5116905;27;20051;-77
2022/11/06 11:54:00;;;;;;;6.80;2.50;;;11.70;82.70;;;;;;5129210;27;20123;-74
2022/11/06 11:56:30;;;;;;;6.65;2.17;;;11.80;82.70;;;;;;5103950;28;20040;-74
2022/11/06 11:59:00;;;;;;;5.28;1.85;;;11.80;82.60;;;;;;5113231;28;20056;-73
2022/11/06 12:01:39;;;;;;;5.53;1.08;;;11.90;81.70;;;;;;5111783;27;20533;-74
2022/11/06 12:04:21;;;;;;;8.93;1.85;;;11.90;81.30;;;;;;5095421;28;20533;-74
2022/11/06 12:06:57;;;;;;;7.93;1.93;;;11.90;81.40;;;;;;5110448;27;20043;-76
2022/11/06 12:09:25;;;;;;;7.50;2.55;;;11.90;81.40;;;;;;5101751;28;20055;-78
2022/11/06 12:11:54;;;;;;;5.43;1.80;;;12.00;80.90;;;;;;5130180;27;20502;-79
2022/11/06 12:14:31;;;;;;;7.03;1.48;;;12.00;80.50;;;;;;5115524;27;20054;-82
2022/11/06 12:17:04;;;;;;;5.43;1.83;;;12.00;79.90;;;;;;5133527;27;20106;-78
2022/11/06 12:19:35;;;;;;;5.70;1.60;;;12.00;80.20;;;;;;5095214;28;20056;-74
2022/11/06 12:22:07;;;;;;;5.00;1.40;;;12.00;80.50;;;;;;5110692;27;20047;-78
2022/11/06 12:24:42;;;;;;;6.72;1.40;;;12.00;80.40;;;;;;5132750;27;20141;-77
2022/11/06 12:27:17;;;;;;;4.50;1.08;;;12.10;80.40;;;;;;5115487;27;20051;-83
2022/11/06 12:29:48;;;;;;;4.68;1.20;;;12.10;80.50;;;;;;5095596;28;20131;-85
2022/11/06 12:32:26;;;;;;;5.33;1.20;;;12.10;80.40;;;;;;5095590;27;20054;-78
2022/11/06 12:35:03;;;;;;;6.40;1.27;;;12.10;80.30;;;;;;5121652;27;20125;-77
2022/11/06 12:37:42;;;;;;;6.85;1.20;;;12.10;80.40;;;;;;5113623;28;20094;-78
2022/11/06 12:40:18;;;;;;;7.40;1.40;;;12.10;79.40;;;;;;5096747;27;20052;-78
2022/11/06 12:42:58;;;;;;;5.10;0.90;;;12.10;79.50;;;;;;5116144;27;20044;-78
2022/11/06 12:45:36;;;;;;;6.10;1.63;;;12.10;79.40;;;;;;5134217;27;20513;-78
2022/11/06 12:48:13;;;;;;;6.20;1.35;;;12.10;79.10;;;;;;5115742;27;20059;-77
2022/11/06 12:50:51;;;;;;;10.48;3.17;;;12.10;78.80;;;;;;5133388;27;20075;-75
2022/11/06 12:53:34;;;;;;;10.48;3.50;;;12.10;78.80;;;;;;5120727;27;20056;-76
2022/11/06 12:56:10;;;;;;;10.43;3.83;;;12.10;78.90;;;;;;5108328;27;20075;-76
2022/11/06 12:58:49;;;;;;;8.23;2.30;;;12.10;79.10;;;;;;5086340;27;20059;-75
2022/11/06 13:01:21;;;;;;;8.40;2.70;;;12.10;79.30;;;;;;5126777;27;20048;-75
2022/11/06 13:04:10;;;;;;;6.45;2.00;;;12.10;79.10;;;;;;5105715;27;20047;-75
2022/11/06 13:07:03;;;;;;;6.65;1.48;;;12.10;79.00;;;;;;5118478;27;20060;-76
2022/11/06 13:09:37;;;;;;;5.82;1.10;;;12.10;78.90;;;;;;5099005;27;20114;-76
2022/11/06 13:12:14;;;;;;;5.30;1.17;;;12.10;78.80;;;;;;5103693;27;20106;-75
2022/11/06 13:14:52;;;;;;;5.10;1.00;;;12.10;78.60;;;;;;5121586;27;20056;-75